Time;durP1;ratioP1;P1;durP2;ratioP2;P2;SDS_P1;SDS_P2;PMS_P1;PMS_P2;Temp;Humidity;BMP_temperature;BMP_pressure;BME280_temperature;BME280_humidity;BME280_pressure;Samples;Min_cycle;Max_cycle;Signal;HPM_P1;HPM_P2
2023/06/23 00:01:22;;;;;;;5.00;4.00;;;;;;;22.39;48.21;100248.73;105513;1255;72284;-72
2023/06/23 00:03:54;;;;;;;8.10;4.00;;;;;;;22.41;48.36;100258.73;105531;1253;69080;-69
2023/06/23 00:06:23;;;;;;;4.50;3.70;;;;;;;22.40;48.28;100262.66;105529;1256;69295;-70
2023/06/23 00:08:51;;;;;;;4.40;4.00;;;;;;;22.41;48.17;100263.64;105508;1256;74799;-71
2023/06/23 00:11:20;;;;;;;5.50;3.50;;;;;;;22.43;48.25;100268.68;105525;1253;82430;-71
2023/06/23 00:13:50;;;;;;;5.40;4.20;;;;;;;22.43;48.31;100266.85;105542;1255;73711;-70
2023/06/23 00:16:18;;;;;;;5.00;3.90;;;;;;;22.42;48.41;100263.91;105523;1252;69209;-69
2023/06/23 00:18:46;;;;;;;4.00;3.60;;;;;;;22.43;48.45;100257.67;105596;1255;69215;-73
2023/06/23 00:21:15;;;;;;;4.70;4.20;;;;;;;22.42;48.59;100250.55;105555;1255;72954;-71
2023/06/23 00:23:43;;;;;;;4.80;3.80;;;;;;;22.40;48.39;100236.83;105508;1254;83242;-70
2023/06/23 00:26:12;;;;;;;5.50;3.90;;;;;;;22.40;48.39;100224.77;105490;1255;74153;-71
2023/06/23 00:28:40;;;;;;;4.60;3.90;;;;;;;22.40;48.42;100211.62;105550;1254;69115;-72
2023/06/23 00:31:08;;;;;;;7.10;3.60;;;;;;;22.39;48.39;100195.70;105523;1257;69215;-71
2023/06/23 00:33:37;;;;;;;4.40;3.80;;;;;;;22.38;48.33;100184.02;105539;1255;75104;-71
2023/06/23 00:36:06;;;;;;;4.60;4.10;;;;;;;22.36;48.38;100175.32;105592;1253;82456;-71
2023/06/23 00:38:34;;;;;;;4.40;3.70;;;;;;;22.33;48.62;100160.10;105518;1255;73964;-71
2023/06/23 00:41:03;;;;;;;4.70;4.20;;;;;;;22.30;48.52;100150.21;105628;1255;69122;-71
2023/06/23 00:43:31;;;;;;;5.70;4.10;;;;;;;22.27;48.86;100141.23;105570;1256;69215;-70
2023/06/23 00:46:11;;;;;;;5.20;3.70;;;;;;;22.20;49.50;100138.09;105525;1255;74886;-71
2023/06/23 00:48:40;;;;;;;4.10;3.60;;;;;;;22.11;49.59;100127.10;105593;1255;83411;-71
2023/06/23 00:51:09;;;;;;;4.70;3.60;;;;;;;22.06;50.02;100125.98;105511;1255;72782;-71
2023/06/23 00:53:38;;;;;;;5.50;4.10;;;;;;;21.99;50.74;100123.38;105581;1253;69089;-71
2023/06/23 00:56:06;;;;;;;5.80;3.90;;;;;;;21.90;51.18;100116.77;105619;1255;69196;-69
2023/06/23 00:58:36;;;;;;;6.10;4.00;;;;;;;21.82;51.47;100107.31;105497;1254;74682;-71
2023/06/23 01:01:05;;;;;;;4.70;3.60;;;;;;;21.76;51.55;100117.83;105609;1255;83713;-71
2023/06/23 01:03:35;;;;;;;5.30;3.70;;;;;;;21.71;51.62;100141.90;105570;1256;71829;-69
2023/06/23 01:06:30;;;;;;;5.00;3.70;;;;;;;21.67;51.52;100156.85;105607;1253;69176;-71
2023/06/23 01:09:05;;;;;;;5.00;3.90;;;;;;;21.63;52.33;100155.38;105567;1256;69155;-72
2023/06/23 01:11:41;;;;;;;5.50;3.90;;;;;;;21.56;52.58;100142.34;105538;1256;73856;-70
2023/06/23 01:14:22;;;;;;;5.80;3.90;;;;;;;21.51;52.90;100127.34;105464;1257;83595;-70
2023/06/23 01:16:58;;;;;;;5.10;3.80;;;;;;;21.47;53.04;100128.02;105497;1253;73763;-72
2023/06/23 01:19:57;;;;;;;6.70;3.90;;;;;;;21.45;53.62;100133.36;105533;1255;69149;-70
2023/06/23 01:22:33;;;;;;;6.50;3.80;;;;;;;21.39;54.22;100135.27;105522;1255;69187;-69
2023/06/23 01:25:11;;;;;;;8.10;4.10;;;;;;;21.34;54.57;100158.40;105519;1253;74906;-69
2023/06/23 01:28:04;;;;;;;6.60;3.80;;;;;;;21.30;54.38;100171.71;105557;1256;82522;-72
2023/06/23 01:30:35;;;;;;;5.10;4.20;;;;;;;21.28;54.25;100168.52;105518;1256;74058;-71
2023/06/23 01:33:09;;;;;;;4.70;4.00;;;;;;;21.28;54.31;100166.36;105534;1257;69234;-73
2023/06/23 01:35:42;;;;;;;4.80;3.90;;;;;;;21.30;54.60;100171.56;105514;1257;69241;-70
2023/06/23 01:38:22;;;;;;;4.60;4.10;;;;;;;21.29;55.08;100181.04;105553;1253;73883;-69
2023/06/23 01:40:54;;;;;;;4.20;3.80;;;;;;;21.26;55.16;100190.02;105543;1253;82577;-76
2023/06/23 01:43:29;;;;;;;6.60;4.10;;;;;;;21.22;54.54;100299.13;105517;1254;74001;-67
2023/06/23 01:46:25;;;;;;;8.70;4.40;;;;;;;21.12;54.40;100435.27;105520;1256;69230;-69
2023/06/23 01:48:58;;;;;;;20.50;6.80;;;;;;;21.17;55.01;100447.70;105575;1255;69186;-63
2023/06/23 01:51:27;;;;;;;14.10;7.00;;;;;;;20.63;57.68;100430.11;105332;1254;74898;-63
2023/06/23 01:54:00;;;;;;;16.00;7.60;;;;;;;19.55;60.62;100392.43;105525;1257;83620;-65
2023/06/23 01:56:28;;;;;;;22.80;7.90;;;;;;;18.93;63.53;100350.75;105509;1258;73746;-65
2023/06/23 01:59:02;;;;;;;18.80;8.60;;;;;;;18.54;66.26;100319.70;105504;1253;69258;-67
2023/06/23 02:01:34;;;;;;;21.50;8.50;;;;;;;18.27;68.45;100261.16;105520;1258;69221;-70
2023/06/23 02:04:03;;;;;;;12.30;6.50;;;;;;;18.06;70.83;100246.32;105479;1253;74892;-72
2023/06/23 02:06:34;;;;;;;12.10;5.60;;;;;;;17.96;72.21;100238.57;105557;1252;82373;-74
2023/06/23 02:09:10;;;;;;;10.50;6.90;;;;;;;17.88;73.87;100214.61;105557;1255;71449;-75
2023/06/23 02:11:39;;;;;;;11.10;6.40;;;;;;;17.86;75.49;100175.71;105517;1255;69138;-75
2023/06/23 02:14:09;;;;;;;18.20;7.50;;;;;;;17.88;76.57;100156.63;105542;1253;69074;-77
2023/06/23 02:16:38;;;;;;;11.40;6.90;;;;;;;17.83;77.24;100173.39;105242;1259;74906;-74
2023/06/23 02:19:13;;;;;;;15.60;6.70;;;;;;;17.78;78.07;100181.89;105542;1253;83195;-75
2023/06/23 02:21:45;;;;;;;15.10;6.70;;;;;;;17.76;79.24;100186.44;105570;1253;72980;-73
2023/06/23 02:24:16;;;;;;;13.90;6.20;;;;;;;17.75;79.97;100185.80;105530;1255;69131;-71
2023/06/23 02:26:48;;;;;;;11.50;5.40;;;;;;;17.75;80.64;100183.85;105597;1255;69187;-72
2023/06/23 02:29:20;;;;;;;14.70;5.80;;;;;;;17.74;81.10;100178.27;105516;1259;74901;-72
2023/06/23 02:31:53;;;;;;;14.40;6.10;;;;;;;17.73;81.78;100170.17;105312;1258;83378;-71
2023/06/23 02:34:22;;;;;;;9.60;6.10;;;;;;;17.69;82.47;100159.48;105498;1255;73130;-71
2023/06/23 02:36:56;;;;;;;12.30;5.90;;;;;;;17.69;82.89;100168.02;105492;1255;69208;-73
2023/06/23 02:39:31;;;;;;;15.60;6.50;;;;;;;17.68;83.66;100171.62;105547;1253;69092;-74
2023/06/23 02:42:02;;;;;;;9.90;6.10;;;;;;;17.69;84.21;100179.48;105605;1253;73923;-74
2023/06/23 02:44:36;;;;;;;9.10;5.80;;;;;;;17.71;84.82;100177.20;105541;1258;82248;-73
2023/06/23 02:47:11;;;;;;;9.50;5.70;;;;;;;17.72;85.04;100160.55;105558;1253;72770;-73
2023/06/23 02:49:43;;;;;;;11.80;6.50;;;;;;;17.72;85.23;100136.11;105549;1256;69208;-73
2023/06/23 02:52:13;;;;;;;9.30;5.80;;;;;;;17.67;85.34;100113.23;105518;1257;69327;-71
2023/06/23 02:54:48;;;;;;;10.10;5.90;;;;;;;17.65;86.07;100094.11;105604;1253;73490;-72
2023/06/23 02:57:18;;;;;;;10.80;6.70;;;;;;;17.64;86.67;100073.11;105554;1253;82755;-71
2023/06/23 02:59:53;;;;;;;11.10;5.70;;;;;;;17.65;87.11;100060.84;105518;1257;72740;-74
2023/06/23 03:02:25;;;;;;;10.50;6.00;;;;;;;17.66;87.45;100076.01;105499;1253;69320;-73
2023/06/23 03:04:56;;;;;;;11.10;6.50;;;;;;;17.64;87.66;100090.82;105274;1253;69169;-73
2023/06/23 03:07:29;;;;;;;10.10;6.40;;;;;;;17.60;87.79;100111.71;105500;1256;73992;-72
2023/06/23 03:10:01;;;;;;;9.10;6.10;;;;;;;17.59;88.12;100117.27;105546;1253;82888;-73
2023/06/23 03:12:29;;;;;;;12.10;6.50;;;;;;;17.58;88.15;100134.83;105500;1257;73751;-79
2023/06/23 03:15:00;;;;;;;11.00;6.90;;;;;;;17.56;88.17;100152.83;105484;1257;69137;-71
2023/06/23 03:17:31;;;;;;;11.20;6.40;;;;;;;17.48;87.88;100162.77;105502;1253;69089;-72
2023/06/23 03:20:24;;;;;;;12.00;6.60;;;;;;;17.39;87.99;100169.41;105594;1254;75218;-75
2023/06/23 03:23:03;;;;;;;10.70;6.90;;;;;;;17.35;88.98;100165.06;105554;1253;83473;-71
2023/06/23 03:25:37;;;;;;;;;;;;;;;17.37;89.81;100159.95;105526;1257;72666;-72
2023/06/23 03:28:08;;;;;;;9.30;6.40;;;;;;;17.39;90.42;100169.89;105542;1253;69167;-71
2023/06/23 03:30:53;;;;;;;9.20;6.30;;;;;;;17.41;90.50;100154.58;105506;1258;69739;-72
2023/06/23 03:33:29;;;;;;;10.70;7.80;;;;;;;17.41;90.83;100140.83;105512;1253;74727;-73
2023/06/23 03:36:04;;;;;;;10.60;6.70;;;;;;;17.42;91.13;100144.31;105521;1253;83656;-70
2023/06/23 03:38:42;;;;;;;9.60;6.50;;;;;;;17.45;91.63;100139.13;105516;1253;72756;-70
2023/06/23 03:41:14;;;;;;;8.40;6.30;;;;;;;17.47;91.71;100129.96;105540;1254;69221;-74
2023/06/23 03:43:48;;;;;;;9.90;6.40;;;;;;;17.49;91.99;100114.77;105511;1254;69174;-70
2023/06/23 03:46:25;;;;;;;14.00;6.80;;;;;;;17.50;91.88;100117.77;105554;1254;74896;-70
2023/06/23 03:48:56;;;;;;;11.20;6.90;;;;;;;17.46;91.62;100118.21;105584;1253;83386;-71
2023/06/23 03:51:26;;;;;;;11.90;6.70;;;;;;;17.41;91.57;100121.19;105570;1254;72812;-72
2023/06/23 03:53:57;;;;;;;;;;;;;;;17.39;92.04;100132.96;105539;1257;69222;-73
2023/06/23 03:56:34;;;;;;;9.90;5.80;;;;;;;17.42;92.62;100161.05;105575;1251;69237;-73
2023/06/23 03:59:03;;;;;;;9.60;6.20;;;;;;;17.38;92.18;100198.41;105666;1253;74877;-73
2023/06/23 04:01:33;;;;;;;9.30;6.60;;;;;;;17.29;92.08;100201.30;105588;1256;83748;-72
2023/06/23 04:04:02;;;;;;;12.50;7.40;;;;;;;17.26;92.48;100193.58;105619;1255;73847;-72
2023/06/23 04:06:34;;;;;;;;;;;;;;;17.26;92.90;100189.33;105603;1256;69122;-76
2023/06/23 04:09:07;;;;;;;9.20;6.20;;;;;;;17.28;93.64;100182.31;105602;1253;69178;-70
2023/06/23 04:11:37;;;;;;;13.30;6.90;;;;;;;17.30;93.78;100177.04;105700;1257;74936;-69
2023/06/23 04:14:06;;;;;;;10.90;6.90;;;;;;;17.32;93.94;100160.67;105695;1257;83749;-71
2023/06/23 04:16:36;;;;;;;11.30;7.30;;;;;;;17.36;94.45;100144.12;105495;1253;72886;-70
2023/06/23 04:19:06;;;;;;;9.10;7.40;;;;;;;17.41;94.82;100136.56;105638;1255;69025;-70
2023/06/23 04:21:37;;;;;;;9.50;7.00;;;;;;;17.46;95.12;100136.21;105630;1259;69079;-71
2023/06/23 04:24:06;;;;;;;9.60;7.40;;;;;;;17.52;95.42;100136.49;105598;1255;75038;-71
2023/06/23 04:26:36;;;;;;;10.10;7.70;;;;;;;17.56;95.27;100132.69;105508;1258;83290;-71
2023/06/23 04:29:06;;;;;;;10.80;7.10;;;;;;;17.59;95.52;100141.48;105615;1256;74045;-70
2023/06/23 04:31:36;;;;;;;9.40;7.20;;;;;;;17.64;95.22;100154.27;105597;1257;69162;-74
2023/06/23 04:34:05;;;;;;;8.30;7.40;;;;;;;17.67;95.33;100156.10;105551;1257;69164;-74
2023/06/23 04:36:44;;;;;;;10.40;7.30;;;;;;;17.73;95.77;100150.71;105653;1256;74836;-74
2023/06/23 04:39:19;;;;;;;10.60;7.20;;;;;;;17.78;95.83;100147.42;105626;1255;82507;-74
2023/06/23 04:41:51;;;;;;;10.90;6.80;;;;;;;17.82;95.86;100148.74;105674;1256;73947;-74
2023/06/23 04:44:20;;;;;;;10.30;7.60;;;;;;;17.83;95.61;100167.73;105650;1255;69177;-74
2023/06/23 04:46:50;;;;;;;11.60;7.50;;;;;;;17.85;95.72;100177.66;105661;1257;69205;-75
2023/06/23 04:49:22;;;;;;;9.90;7.00;;;;;;;17.87;95.80;100180.55;105534;1257;75064;-74
2023/06/23 04:51:52;;;;;;;10.20;7.30;;;;;;;17.90;96.12;100188.84;105647;1257;83562;-74
2023/06/23 04:54:39;;;;;;;10.50;8.10;;;;;;;17.93;96.37;100202.60;105594;1253;73901;-75
2023/06/23 04:57:11;;;;;;;10.60;7.60;;;;;;;17.96;96.33;100204.81;105734;1255;69180;-76
2023/06/23 04:59:40;;;;;;;13.00;8.00;;;;;;;17.96;96.15;100211.89;105600;1257;69197;-75
2023/06/23 05:02:12;;;;;;;10.70;7.90;;;;;;;17.96;96.37;100211.16;105747;1255;74187;-77
2023/06/23 05:04:41;;;;;;;10.10;7.20;;;;;;;17.99;96.71;100207.80;105716;1255;83680;-75
2023/06/23 05:07:13;;;;;;;14.20;8.10;;;;;;;18.02;96.89;100196.60;105608;1257;73925;-75
2023/06/23 05:09:48;;;;;;;10.00;7.50;;;;;;;18.02;96.80;100190.23;105699;1255;69135;-76
2023/06/23 05:12:18;;;;;;;11.70;7.40;;;;;;;18.06;96.96;100190.49;105684;1257;69174;-76
2023/06/23 05:14:46;;;;;;;;;;;;;;;18.09;96.75;100186.39;105564;1253;75242;-77
2023/06/23 05:17:16;;;;;;;11.50;7.40;;;;;;;18.08;96.53;100180.08;105691;1259;83226;-77
2023/06/23 05:19:46;;;;;;;9.20;7.20;;;;;;;18.08;96.56;100181.16;105434;1259;72042;-75
2023/06/23 05:22:17;;;;;;;10.20;7.40;;;;;;;18.12;96.76;100185.85;105642;1256;69517;-76
2023/06/23 05:24:52;;;;;;;12.60;8.30;;;;;;;18.15;96.60;100190.58;105639;1253;69542;-76
2023/06/23 05:27:24;;;;;;;12.40;8.10;;;;;;;18.12;96.09;100198.02;105758;1255;76085;-74
2023/06/23 05:29:58;;;;;;;14.10;8.40;;;;;;;18.12;96.39;100196.27;105664;1253;82943;-75
2023/06/23 05:32:29;;;;;;;11.10;8.10;;;;;;;18.14;96.60;100185.16;105661;1254;73658;-77
2023/06/23 05:35:00;;;;;;;10.70;8.30;;;;;;;18.15;96.74;100183.99;105645;1256;69055;-77
2023/06/23 05:37:31;;;;;;;9.70;8.00;;;;;;;18.21;97.12;100179.73;105713;1256;69078;-76
2023/06/23 05:40:03;;;;;;;17.40;8.00;;;;;;;18.26;97.16;100176.84;105731;1254;73885;-76
2023/06/23 05:42:32;;;;;;;10.70;7.50;;;;;;;18.28;96.83;100179.70;105662;1255;83372;-77
2023/06/23 05:45:02;;;;;;;10.90;8.30;;;;;;;18.32;97.09;100181.08;105722;1253;73737;-77
2023/06/23 05:48:09;;;;;;;11.30;9.10;;;;;;;18.36;97.16;100193.66;105581;1256;69215;-77
2023/06/23 05:50:38;;;;;;;12.40;8.50;;;;;;;18.35;96.82;100199.89;105547;1254;69170;-70
2023/06/23 05:53:09;;;;;;;18.10;10.50;;;;;;;18.34;96.67;100189.77;105576;1258;74646;-69
2023/06/23 05:55:54;;;;;;;10.20;8.60;;;;;;;18.35;96.77;100180.44;105701;1253;82530;-68
2023/06/23 05:58:27;;;;;;;12.10;8.80;;;;;;;18.38;96.90;100166.92;105551;1255;73567;-69
2023/06/23 06:00:58;;;;;;;12.60;9.30;;;;;;;18.44;97.11;100174.30;105612;1257;69245;-68
2023/06/23 06:03:36;;;;;;;17.10;9.20;;;;;;;18.46;96.90;100181.94;105608;1258;69174;-69
2023/06/23 06:06:06;;;;;;;12.50;9.20;;;;;;;18.46;96.80;100178.55;105624;1257;75009;-69
2023/06/23 06:08:38;;;;;;;12.70;9.20;;;;;;;18.49;97.02;100180.66;105398;1257;318287;-69
2023/06/23 06:11:07;;;;;;;12.60;9.80;;;;;;;18.51;96.78;100183.90;105504;1266;72731;-81
2023/06/23 06:13:41;;;;;;;10.10;8.80;;;;;;;18.49;96.79;100182.05;105377;1259;69264;-79
2023/06/23 06:16:10;;;;;;;18.60;9.20;;;;;;;18.54;97.17;100182.41;105578;1253;69097;-70
2023/06/23 06:18:40;;;;;;;13.30;10.20;;;;;;;18.59;97.21;100187.91;105521;1253;74880;-70
2023/06/23 06:21:10;;;;;;;11.90;9.30;;;;;;;18.62;97.37;100191.58;105544;1256;83697;-70
2023/06/23 06:23:39;;;;;;;11.80;9.10;;;;;;;18.65;96.98;100199.16;105471;1257;73780;-70
2023/06/23 06:26:09;;;;;;;10.50;9.20;;;;;;;18.66;97.20;100200.82;105569;1259;69253;-77
2023/06/23 06:28:39;;;;;;;14.40;9.30;;;;;;;18.69;97.07;100207.30;105563;1257;69180;-77
2023/06/23 06:31:08;;;;;;;10.60;8.90;;;;;;;18.72;97.37;100212.98;105724;1256;75485;-77
2023/06/23 06:33:38;;;;;;;12.90;9.10;;;;;;;18.74;96.86;100222.00;105704;1257;83177;-76
2023/06/23 06:36:08;;;;;;;12.30;9.60;;;;;;;18.78;97.10;100220.19;105592;1257;72932;-76
2023/06/23 06:38:37;;;;;;;13.80;9.00;;;;;;;18.84;97.17;100219.87;105583;1256;69178;-76
2023/06/23 06:41:07;;;;;;;11.60;8.90;;;;;;;18.91;96.87;100228.04;105652;1257;68943;-76
2023/06/23 06:43:36;;;;;;;17.60;9.70;;;;;;;18.93;96.60;100232.98;105591;1258;73992;-65
2023/06/23 06:46:05;;;;;;;14.30;9.60;;;;;;;18.99;96.73;100244.98;105633;1254;83513;-68
2023/06/23 06:48:34;;;;;;;12.00;9.30;;;;;;;19.06;96.75;100254.70;105577;1257;74037;-68
2023/06/23 06:51:03;;;;;;;14.60;8.80;;;;;;;19.09;96.23;100255.36;105597;1257;69206;-68
2023/06/23 06:53:32;;;;;;;11.80;9.20;;;;;;;19.09;96.07;100252.73;105630;1258;69145;-68
2023/06/23 06:56:01;;;;;;;13.00;9.40;;;;;;;19.16;96.10;100253.64;105736;1255;73909;-68
2023/06/23 06:58:30;;;;;;;12.80;9.30;;;;;;;19.19;95.89;100251.82;105534;1258;82692;-68
2023/06/23 07:00:58;;;;;;;13.60;8.70;;;;;;;19.23;95.65;100256.62;105591;1256;73543;-68
2023/06/23 07:03:28;;;;;;;11.90;9.60;;;;;;;19.31;95.66;100258.29;105530;1257;69174;-68
2023/06/23 07:05:56;;;;;;;12.80;9.60;;;;;;;19.39;95.67;100261.78;105687;1254;69198;-68
2023/06/23 07:08:25;;;;;;;16.40;9.00;;;;;;;19.51;95.96;100261.73;105726;1256;74630;-68
2023/06/23 07:10:53;;;;;;;11.10;8.80;;;;;;;19.59;95.60;100255.48;105570;1257;83664;-68
2023/06/23 07:13:22;;;;;;;15.30;9.50;;;;;;;19.72;95.82;100250.59;105516;1256;73093;-67
2023/06/23 07:15:50;;;;;;;13.00;9.90;;;;;;;19.81;95.30;100242.77;105522;1256;69520;-69
2023/06/23 07:18:19;;;;;;;15.90;9.40;;;;;;;19.87;94.74;100239.91;105558;1257;69183;-69
2023/06/23 07:20:47;;;;;;;11.30;8.70;;;;;;;19.91;94.60;100240.27;105529;1261;73960;-70
2023/06/23 07:23:16;;;;;;;13.90;9.20;;;;;;;19.95;94.35;100245.46;105537;1259;83557;-54
2023/06/23 07:25:44;;;;;;;14.70;9.60;;;;;;;19.96;94.08;100248.03;105638;1258;72870;-56
2023/06/23 07:28:13;;;;;;;12.80;8.60;;;;;;;19.99;94.50;100247.92;105552;1266;69202;-57
2023/06/23 07:30:41;;;;;;;13.00;9.30;;;;;;;20.09;94.70;100246.64;105730;1257;69123;-55
2023/06/23 07:33:10;;;;;;;10.90;8.80;;;;;;;20.16;94.33;100249.50;105656;1256;75182;-57
2023/06/23 07:35:38;;;;;;;11.10;9.90;;;;;;;20.21;94.19;100247.44;105506;1253;83893;-57
2023/06/23 07:38:07;;;;;;;14.80;10.70;;;;;;;20.29;94.31;100243.29;105689;1266;73521;-58
2023/06/23 07:40:35;;;;;;;13.20;10.30;;;;;;;20.33;93.95;100245.05;105562;1255;69157;-59
2023/06/23 07:43:03;;;;;;;13.60;10.20;;;;;;;20.37;93.63;100242.98;105560;1255;69167;-59
2023/06/23 07:45:32;;;;;;;16.20;12.40;;;;;;;20.46;94.01;100243.64;105673;1254;74777;-56
2023/06/23 07:48:00;;;;;;;12.40;11.20;;;;;;;20.57;93.40;100246.23;105588;1256;83451;-57
2023/06/23 07:50:29;;;;;;;18.80;12.50;;;;;;;20.62;92.96;100246.45;105614;1258;73760;-58
2023/06/23 07:52:58;;;;;;;16.10;11.80;;;;;;;20.68;93.17;100249.71;105630;1257;69201;-59
2023/06/23 07:55:26;;;;;;;15.50;10.70;;;;;;;20.81;93.20;100254.21;105592;1256;69187;-57
2023/06/23 07:57:55;;;;;;;16.10;11.20;;;;;;;20.99;93.26;100263.00;105585;1255;75104;-56
2023/06/23 08:00:24;;;;;;;18.20;11.40;;;;;;;21.14;92.78;100269.73;105619;1257;83679;-57
2023/06/23 08:02:52;;;;;;;13.00;11.30;;;;;;;21.27;92.50;100270.46;105620;1253;73867;-55
2023/06/23 08:05:21;;;;;;;14.80;11.10;;;;;;;21.37;91.56;100270.89;105682;1258;69219;-57
2023/06/23 08:07:50;;;;;;;12.30;10.90;;;;;;;21.47;91.68;100274.27;105663;1254;68998;-57
2023/06/23 08:10:18;;;;;;;14.80;11.70;;;;;;;21.58;91.23;100285.09;105740;1257;73768;-58
2023/06/23 08:12:47;;;;;;;21.90;11.00;;;;;;;21.71;91.17;100289.35;105557;1258;82522;-58
2023/06/23 08:15:15;;;;;;;19.70;11.40;;;;;;;21.86;91.24;100295.52;105623;1254;74218;-59
2023/06/23 08:17:44;;;;;;;16.70;11.70;;;;;;;21.99;90.82;100296.70;105668;1259;69198;-59
2023/06/23 08:20:14;;;;;;;15.30;11.30;;;;;;;22.14;90.63;100296.83;105583;1256;69226;-59
2023/06/23 08:22:43;;;;;;;14.50;11.30;;;;;;;22.28;90.25;100300.42;105593;1257;74017;-59
2023/06/23 08:25:11;;;;;;;13.10;10.50;;;;;;;22.39;89.56;100296.61;105710;1265;83667;-60
2023/06/23 08:27:40;;;;;;;14.00;11.40;;;;;;;22.50;89.23;100297.23;105559;1258;72816;-59
2023/06/23 08:30:09;;;;;;;12.80;10.70;;;;;;;22.64;89.11;100303.09;105618;1256;69244;-59
2023/06/23 08:32:37;;;;;;;14.80;11.30;;;;;;;22.83;88.93;100311.19;105640;1255;69040;-59
2023/06/23 08:35:06;;;;;;;12.70;10.70;;;;;;;22.97;88.09;100321.04;105494;1257;75092;-58
2023/06/23 08:37:38;;;;;;;14.00;10.60;;;;;;;23.08;87.75;100322.55;105650;1257;83401;-59
2023/06/23 08:40:08;;;;;;;11.60;10.30;;;;;;;23.12;86.70;100320.95;105619;1255;73638;-58
2023/06/23 08:42:37;;;;;;;13.10;9.60;;;;;;;23.18;86.52;100317.16;105673;1257;69166;-58
2023/06/23 08:45:07;;;;;;;11.80;9.30;;;;;;;23.27;86.82;100309.53;105807;1258;69174;-58
2023/06/23 08:47:42;;;;;;;14.00;10.20;;;;;;;23.43;86.78;100304.58;105578;1258;73819;-59
2023/06/23 08:50:11;;;;;;;12.70;9.90;;;;;;;23.53;86.05;100306.08;105562;1257;83404;-59
2023/06/23 08:52:39;;;;;;;14.10;10.10;;;;;;;23.59;85.75;100307.65;105414;1257;74034;-62
2023/06/23 08:55:11;;;;;;;11.90;8.70;;;;;;;23.69;85.69;100312.29;105483;1259;69119;-59
2023/06/23 08:57:39;;;;;;;10.10;9.10;;;;;;;23.87;85.38;100318.16;105417;1257;69205;-60
2023/06/23 09:00:08;;;;;;;12.30;8.90;;;;;;;23.98;84.18;100316.56;105504;1263;73734;-61
2023/06/23 09:02:37;;;;;;;12.70;8.90;;;;;;;24.10;83.77;100317.93;105502;1257;83372;-62
2023/06/23 09:05:06;;;;;;;12.70;9.30;;;;;;;24.20;83.45;100318.55;105466;1257;73720;-62
2023/06/23 09:07:34;;;;;;;9.90;8.20;;;;;;;24.26;83.22;100324.06;105558;1255;69192;-61
2023/06/23 09:10:03;;;;;;;10.90;8.10;;;;;;;24.33;82.84;100322.64;105428;1254;69204;-60
2023/06/23 09:12:32;;;;;;;14.20;9.50;;;;;;;24.42;82.69;100327.68;105613;1257;72621;-61
2023/06/23 09:15:02;;;;;;;10.50;8.90;;;;;;;24.41;82.22;100322.76;105653;1257;82610;-60
2023/06/23 09:17:30;;;;;;;;;;;;;;;24.45;82.19;100324.16;105632;1256;73788;-60
2023/06/23 09:19:58;;;;;;;9.70;8.40;;;;;;;24.50;82.10;100322.67;105590;1256;69221;-60
2023/06/23 09:22:28;;;;;;;9.50;8.20;;;;;;;24.59;82.16;100315.04;105635;1254;69127;-59
2023/06/23 09:24:56;;;;;;;11.00;8.80;;;;;;;24.67;82.16;100313.10;105581;1258;75206;-65
2023/06/23 09:27:40;;;;;;;10.00;8.60;;;;;;;24.79;81.93;100308.23;105498;1255;83562;-61
2023/06/23 09:30:10;;;;;;;12.10;9.00;;;;;;;24.81;81.26;100314.45;105484;1257;74265;-62
2023/06/23 09:32:44;;;;;;;12.90;7.30;;;;;;;24.88;81.24;100317.55;105516;1254;69106;-60
2023/06/23 09:35:12;;;;;;;9.90;7.70;;;;;;;24.98;80.43;100325.13;105458;1256;69177;-60
2023/06/23 09:37:44;;;;;;;10.80;8.20;;;;;;;25.11;80.60;100326.14;105447;1259;74915;-62
2023/06/23 09:40:13;;;;;;;9.20;8.30;;;;;;;25.25;80.12;100332.43;105472;1254;82805;-61
2023/06/23 09:42:45;;;;;;;10.70;8.50;;;;;;;25.36;80.20;100338.59;105483;1254;72687;-61
2023/06/23 09:45:17;;;;;;;14.00;8.40;;;;;;;25.49;79.40;100345.23;105452;1258;69407;-64
2023/06/23 09:47:48;;;;;;;9.50;8.40;;;;;;;25.57;78.77;100344.42;105525;1258;69142;-60
2023/06/23 09:50:20;;;;;;;11.20;9.20;;;;;;;25.65;78.58;100342.23;105560;1257;75096;-61
2023/06/23 09:53:00;;;;;;;10.60;8.70;;;;;;;25.73;77.80;100342.33;105556;1257;83249;-61
2023/06/23 09:55:30;;;;;;;16.10;9.20;;;;;;;25.82;77.51;100343.71;105565;1254;73968;-64
2023/06/23 09:57:59;;;;;;;11.70;8.70;;;;;;;25.95;76.93;100347.11;105503;1255;69141;-62
2023/06/23 10:00:31;;;;;;;28.70;9.50;;;;;;;26.02;76.52;100351.02;105533;1260;69322;-63
2023/06/23 10:03:00;;;;;;;9.40;8.40;;;;;;;26.10;75.89;100354.11;105485;1255;74731;-62
2023/06/23 10:05:36;;;;;;;9.30;8.00;;;;;;;26.26;75.59;100352.40;105539;1257;83591;-60
2023/06/23 10:08:07;;;;;;;8.90;8.00;;;;;;;26.43;75.18;100352.96;105460;1258;72443;-61
2023/06/23 10:10:45;;;;;;;8.00;7.10;;;;;;;26.43;74.66;100352.26;105490;1254;69185;-62
2023/06/23 10:13:13;;;;;;;12.40;7.00;;;;;;;26.42;73.90;100348.28;105490;1258;69289;-62
2023/06/23 10:15:42;;;;;;;10.90;7.00;;;;;;;26.51;73.79;100349.86;105277;1257;74326;-64
2023/06/23 10:18:11;;;;;;;8.80;6.70;;;;;;;26.54;73.23;100351.73;105436;1254;83792;-61
2023/06/23 10:20:40;;;;;;;10.80;7.70;;;;;;;26.59;73.08;100359.04;105409;1254;72988;-62
2023/06/23 10:23:10;;;;;;;8.70;7.00;;;;;;;26.70;73.10;100366.52;105359;1253;69242;-64
2023/06/23 10:25:39;;;;;;;11.10;8.50;;;;;;;26.83;72.49;100370.15;105406;1252;69260;-62
2023/06/23 10:28:09;;;;;;;8.90;7.60;;;;;;;26.93;71.46;100375.20;105417;1257;75122;-62
2023/06/23 10:30:40;;;;;;;10.00;8.10;;;;;;;26.99;71.08;100373.46;105510;1256;83401;-60
2023/06/23 10:33:14;;;;;;;8.20;7.20;;;;;;;27.08;70.82;100377.66;105394;1254;73908;-64
2023/06/23 10:35:46;;;;;;;10.40;7.40;;;;;;;27.27;70.39;100376.73;105439;1257;69112;-61
2023/06/23 10:38:17;;;;;;;8.20;7.10;;;;;;;27.45;70.22;100380.11;105468;1258;69176;-63
2023/06/23 10:40:50;;;;;;;7.70;6.90;;;;;;;27.69;69.92;100374.02;105446;1254;73729;-65
2023/06/23 10:43:20;;;;;;;10.90;7.20;;;;;;;28.06;69.37;100377.95;105490;1258;83668;-62
2023/06/23 10:45:49;;;;;;;9.40;6.60;;;;;;;28.25;68.16;100378.80;105482;1257;73988;-64
2023/06/23 10:48:18;;;;;;;7.30;6.60;;;;;;;28.49;68.10;100371.06;105493;1257;69232;-64
2023/06/23 10:50:46;;;;;;;;;;;;;;;28.78;67.29;100370.76;105511;1257;69129;-61
2023/06/23 10:53:16;;;;;;;7.60;6.30;;;;;;;28.78;66.07;100359.86;105456;1258;75479;-61
2023/06/23 10:55:46;;;;;;;8.00;5.70;;;;;;;28.85;66.39;100357.94;105481;1254;84063;-64
2023/06/23 10:58:51;;;;;;;7.40;6.00;;;;;;;29.33;66.16;100356.58;105437;1257;73362;-61
2023/06/23 11:01:19;;;;;;;6.00;5.20;;;;;;;29.54;65.04;100351.48;105461;1256;69235;-63
2023/06/23 11:03:54;;;;;;;7.20;6.00;;;;;;;29.69;64.03;100353.79;105448;1258;69254;-65
2023/06/23 11:06:28;;;;;;;7.70;5.40;;;;;;;29.55;63.00;100357.52;105478;1254;75378;-64
2023/06/23 11:08:57;;;;;;;8.00;5.20;;;;;;;29.48;62.47;100361.50;105489;1254;83400;-62
2023/06/23 11:11:33;;;;;;;6.70;5.80;;;;;;;29.68;62.40;100364.13;105437;1257;73758;-60
2023/06/23 11:14:01;;;;;;;7.10;5.10;;;;;;;29.64;61.05;100364.83;105460;1253;69139;-65
2023/06/23 11:16:34;;;;;;;6.00;5.40;;;;;;;29.31;60.84;100361.92;105475;1257;69234;-63
2023/06/23 11:19:04;;;;;;;8.30;5.90;;;;;;;28.99;60.82;100363.20;105412;1254;73837;-62
2023/06/23 11:21:35;;;;;;;6.50;5.30;;;;;;;28.73;60.89;100361.97;105455;1257;83333;-60
2023/06/23 11:24:14;;;;;;;7.10;5.30;;;;;;;28.53;60.97;100360.75;105326;1257;72589;-63
2023/06/23 11:26:48;;;;;;;8.00;5.70;;;;;;;28.53;61.17;100352.33;105476;1255;69658;-64
2023/06/23 11:29:20;;;;;;;7.20;5.20;;;;;;;28.63;62.08;100344.96;105404;1258;69213;-61
2023/06/23 11:32:25;;;;;;;7.70;5.40;;;;;;;28.86;62.04;100336.41;105427;1254;74841;-62